createdAt,value
2018-06-23T00:00:37.502Z,69.74
2018-06-23T00:05:39.692Z,69.74
2018-06-23T00:10:41.916Z,69.11
2018-06-23T00:15:44.215Z,69.44
2018-06-23T00:20:46.362Z,68.97
2018-06-23T00:25:54.248Z,69.10
2018-06-23T00:30:56.506Z,69.37
2018-06-23T00:35:58.652Z,69.03
2018-06-23T00:41:00.784Z,69.60
2018-06-23T00:46:02.989Z,68.79
2018-06-23T00:51:05.277Z,69.66
2018-06-23T00:56:07.434Z,70.03
2018-06-23T01:01:09.681Z,70.59
2018-06-23T01:06:11.840Z,70.65
2018-06-23T01:11:13.975Z,70.76
2018-06-23T01:16:16.110Z,70.86
2018-06-23T01:21:18.256Z,71.43
2018-06-23T01:26:20.386Z,71.48
2018-06-23T01:31:22.590Z,71.04
2018-06-23T01:36:24.719Z,72.46
2018-06-23T01:41:26.995Z,73.21
2018-06-23T01:46:29.134Z,73.65
2018-06-23T01:51:31.236Z,73.23
2018-06-23T01:56:33.364Z,72.66
2018-06-23T02:01:35.507Z,72.76
2018-06-23T02:06:37.669Z,72.53
2018-06-23T02:11:39.852Z,71.99
2018-06-23T02:16:47.591Z,71.74
2018-06-23T02:21:55.441Z,72.22
2018-06-23T02:27:03.447Z,71.61
2018-06-23T02:32:11.643Z,72.51
2018-06-23T02:37:13.824Z,72.63
2018-06-23T02:42:15.949Z,74.03
2018-06-23T02:47:18.104Z,73.79
2018-06-23T02:52:20.263Z,74.20
2018-06-23T02:57:22.620Z,73.36
2018-06-23T03:02:25.022Z,73.35
2018-06-23T03:07:27.176Z,73.05
2018-06-23T03:12:29.339Z,72.67
2018-06-23T03:17:31.484Z,72.93
2018-06-23T03:22:33.597Z,73.01
2018-06-23T03:27:35.706Z,73.26
2018-06-23T03:32:37.860Z,74.10
2018-06-23T03:37:39.993Z,75.11
2018-06-23T03:42:42.113Z,76.07
2018-06-23T03:47:44.256Z,76.19
2018-06-23T03:52:46.391Z,76.37
2018-06-23T03:57:48.527Z,76.32
2018-06-23T04:02:50.688Z,75.85
2018-06-23T04:07:52.897Z,75.83
2018-06-23T04:12:55.059Z,74.78
2018-06-23T04:17:57.206Z,73.19
2018-06-23T04:22:59.310Z,73.24
2018-06-23T04:28:01.445Z,73.34
2018-06-23T04:33:03.597Z,72.31
2018-06-23T04:38:05.811Z,72.54
2018-06-23T04:43:07.996Z,73.37
2018-06-23T04:48:10.144Z,74.74
2018-06-23T04:53:12.328Z,74.62
2018-06-23T04:58:14.431Z,74.91
2018-06-23T05:03:16.531Z,75.51
2018-06-23T05:08:18.625Z,75.87
2018-06-23T05:13:20.743Z,75.27
2018-06-23T05:18:22.966Z,74.78
2018-06-23T05:23:25.092Z,75.42
2018-06-23T05:28:27.248Z,72.97
2018-06-23T05:33:29.442Z,73.58
2018-06-23T05:38:31.630Z,71.70
2018-06-23T05:43:33.811Z,69.98
2018-06-23T05:48:35.985Z,70.22
2018-06-23T05:53:38.193Z,69.60
2018-06-23T05:58:40.359Z,69.35
2018-06-23T06:03:42.511Z,70.22
2018-06-23T06:13:53.484Z,69.67
2018-06-23T06:18:55.647Z,67.83
2018-06-23T06:23:57.814Z,65.86
2018-06-23T06:29:00.782Z,66.51
2018-06-23T06:34:02.970Z,66.42
2018-06-23T06:39:05.863Z,66.64
2018-06-23T06:44:08.007Z,64.08
2018-06-23T06:49:10.166Z,62.17
2018-06-23T06:54:12.377Z,62.89
2018-06-23T06:59:14.521Z,61.51
2018-06-23T07:04:17.667Z,59.90
2018-06-23T07:09:19.848Z,60.41
2018-06-23T07:14:22.033Z,60.43
2018-06-23T07:19:24.198Z,59.85
2018-06-23T07:24:26.732Z,59.06
2018-06-23T07:29:28.923Z,58.92
2018-06-23T07:34:31.195Z,56.83
2018-06-23T07:39:33.301Z,56.35
2018-06-23T07:44:35.493Z,56.49
2018-06-23T07:49:37.651Z,54.27
2018-06-23T07:54:39.835Z,56.56
2018-06-23T07:59:42.142Z,56.17
2018-06-23T08:04:44.333Z,55.62
2018-06-23T08:09:46.881Z,57.87
2018-06-23T08:14:49.012Z,58.92
2018-06-23T08:19:51.161Z,61.05
2018-06-23T08:24:53.580Z,60.00
2018-06-23T08:29:55.728Z,57.66
2018-06-23T08:34:57.930Z,56.43
2018-06-23T08:40:00.217Z,58.87
2018-06-23T08:45:02.393Z,58.37
2018-06-23T08:50:04.620Z,59.22
2018-06-23T08:55:06.839Z,60.92
2018-06-23T09:00:08.996Z,62.90
2018-06-23T09:05:11.215Z,62.24
2018-06-23T09:10:13.436Z,60.12
2018-06-23T09:15:15.653Z,61.33
2018-06-23T09:20:17.834Z,60.42
2018-06-23T09:25:20.088Z,61.42
2018-06-23T09:30:22.268Z,63.56
2018-06-23T09:35:24.464Z,63.82
2018-06-23T09:40:26.632Z,62.36
2018-06-23T09:45:28.799Z,59.66
2018-06-23T09:50:30.998Z,58.85
2018-06-23T09:55:33.179Z,60.04
2018-06-23T10:00:35.378Z,60.15
2018-06-23T10:05:37.568Z,59.64
2018-06-23T10:10:39.752Z,61.58
2018-06-23T10:15:42.041Z,60.58
2018-06-23T10:20:44.226Z,63.52
2018-06-23T10:25:46.403Z,62.35
2018-06-23T10:30:48.879Z,62.60
2018-06-23T10:35:51.168Z,60.01
2018-06-23T10:40:53.370Z,57.69
2018-06-23T10:45:55.635Z,56.77
2018-06-23T10:50:57.840Z,58.71
2018-06-23T10:56:00.143Z,59.11
2018-06-23T11:01:02.458Z,59.36
2018-06-23T11:06:04.643Z,62.08
2018-06-23T11:11:06.905Z,63.50
2018-06-23T11:16:09.096Z,63.69
2018-06-23T11:21:11.647Z,63.12
2018-06-23T11:26:13.870Z,62.52
2018-06-23T11:31:16.034Z,61.12
2018-06-23T11:36:18.250Z,62.17
2018-06-23T11:41:20.485Z,62.46
2018-06-23T11:46:22.673Z,62.77
2018-06-23T11:51:24.871Z,65.33
2018-06-23T11:56:27.035Z,66.42
2018-06-23T12:01:29.184Z,64.93
2018-06-23T12:06:31.374Z,65.12
2018-06-23T12:11:33.571Z,65.08
2018-06-23T12:16:35.763Z,69.28
2018-06-23T12:21:38.428Z,67.23
2018-06-23T12:26:40.601Z,67.26
2018-06-23T12:31:42.799Z,67.35
2018-06-23T12:36:45.006Z,69.58
2018-06-23T12:41:47.210Z,72.25
2018-06-23T12:46:49.388Z,73.83
2018-06-23T12:51:51.534Z,75.09
2018-06-23T12:56:53.783Z,73.36
2018-06-23T13:01:55.966Z,71.77
2018-06-23T13:06:58.124Z,72.43
2018-06-23T13:12:00.288Z,71.37
2018-06-23T13:17:02.535Z,72.53
2018-06-23T13:22:04.933Z,72.93
2018-06-23T13:27:07.122Z,71.83
2018-06-23T13:32:09.328Z,73.35
2018-06-23T13:37:11.660Z,73.86
2018-06-23T13:42:13.901Z,73.62
2018-06-23T13:47:16.144Z,76.65
2018-06-23T13:52:18.357Z,78.39
2018-06-23T13:57:20.652Z,77.79
2018-06-23T14:02:22.928Z,78.22
2018-06-23T14:07:25.141Z,76.38
2018-06-23T14:12:27.421Z,76.18
2018-06-23T14:17:29.562Z,77.62
2018-06-23T14:22:31.779Z,78.68
2018-06-23T14:27:34.002Z,77.85
2018-06-23T14:32:36.160Z,78.35
2018-06-23T14:37:38.400Z,77.95
2018-06-23T14:42:40.593Z,77.33
2018-06-23T14:47:42.766Z,78.11
2018-06-23T14:52:44.974Z,77.67
2018-06-23T14:57:47.212Z,76.93
2018-06-23T15:02:49.414Z,77.21
2018-06-23T15:07:51.617Z,77.99
2018-06-23T15:13:05.579Z,75.83
2018-06-23T15:18:07.771Z,75.59
2018-06-23T15:23:09.998Z,76.94
2018-06-23T15:28:12.165Z,76.62
2018-06-23T15:33:14.347Z,76.63
2018-06-23T15:38:16.595Z,75.22
2018-06-23T15:43:18.751Z,76.03
2018-06-23T15:48:20.916Z,75.22
2018-06-23T15:53:23.168Z,76.31
2018-06-23T15:58:25.330Z,77.15
2018-06-23T16:03:27.733Z,78.27
2018-06-23T16:08:29.970Z,76.54
2018-06-23T16:13:32.188Z,76.86
2018-06-23T16:18:34.381Z,78.43
2018-06-23T16:23:36.578Z,79.97
2018-06-23T16:28:38.740Z,79.37
2018-06-23T16:33:40.964Z,80.48
2018-06-23T16:38:43.172Z,78.71
2018-06-23T16:43:45.377Z,78.92
2018-06-23T16:48:47.592Z,79.17
2018-06-23T16:53:49.759Z,79.49
2018-06-23T16:58:51.933Z,79.35
2018-06-23T17:03:54.244Z,79.66
2018-06-23T17:08:56.356Z,80.90
2018-06-23T17:13:58.565Z,80.17
2018-06-23T17:19:00.768Z,79.33
2018-06-23T17:24:02.939Z,80.80
2018-06-23T17:29:05.155Z,80.26
2018-06-23T17:34:07.380Z,80.62
2018-06-23T17:39:10.321Z,81.83
2018-06-23T17:44:12.551Z,81.59
2018-06-23T17:49:14.769Z,81.70
2018-06-23T17:54:16.959Z,82.17
2018-06-23T17:59:19.183Z,81.23
2018-06-23T18:04:21.399Z,80.91
2018-06-23T18:09:23.588Z,81.36
2018-06-23T18:14:25.789Z,81.64
2018-06-23T18:19:27.995Z,81.03
2018-06-23T18:24:30.201Z,82.30
2018-06-23T18:29:32.374Z,81.81
2018-06-23T18:34:34.561Z,81.72
2018-06-23T18:39:36.788Z,81.71
2018-06-23T18:44:38.964Z,81.55
2018-06-23T18:49:41.152Z,81.22
2018-06-23T18:54:43.346Z,80.88
2018-06-23T18:59:45.514Z,81.43
2018-06-23T19:04:47.692Z,81.31
2018-06-23T19:09:49.913Z,80.95
2018-06-23T19:14:52.088Z,80.88
2018-06-23T19:19:54.350Z,81.59
2018-06-23T19:24:56.547Z,80.93
2018-06-23T19:29:58.789Z,81.27
2018-06-23T19:35:00.968Z,81.09
2018-06-23T19:40:03.466Z,80.84
2018-06-23T19:45:05.642Z,81.11
2018-06-23T19:50:07.845Z,81.07
2018-06-23T19:55:10.059Z,81.14
2018-06-23T20:00:12.232Z,80.95
2018-06-23T20:05:14.420Z,79.63
2018-06-23T20:10:16.612Z,79.54
2018-06-23T20:15:18.818Z,80.31
2018-06-23T20:20:21.053Z,79.81
2018-06-23T20:25:23.247Z,79.06
2018-06-23T20:30:25.411Z,79.87
2018-06-23T20:35:27.611Z,78.81
2018-06-23T20:40:29.838Z,78.48
2018-06-23T20:45:32.316Z,78.36
2018-06-23T20:50:34.523Z,79.72
2018-06-23T20:55:36.753Z,79.16
2018-06-23T21:00:38.938Z,79.64
2018-06-23T21:05:41.084Z,80.67
2018-06-23T21:10:44.551Z,80.55
2018-06-23T21:15:46.695Z,80.30
2018-06-23T21:20:48.908Z,80.88
2018-06-23T21:25:51.095Z,80.08
2018-06-23T21:30:53.368Z,80.11
2018-06-23T21:35:55.481Z,79.84
2018-06-23T21:40:57.713Z,80.62
2018-06-23T21:45:59.881Z,81.61
2018-06-23T21:51:02.097Z,81.24
2018-06-23T21:56:04.319Z,80.63
2018-06-23T22:01:06.652Z,81.45
2018-06-23T22:06:08.885Z,81.15
2018-06-23T22:11:11.057Z,81.36
2018-06-23T22:16:13.273Z,80.50
2018-06-23T22:21:15.469Z,79.99
2018-06-23T22:26:17.659Z,79.49
2018-06-23T22:31:19.818Z,79.59
2018-06-23T22:36:21.992Z,79.56
2018-06-23T22:41:24.184Z,79.49
2018-06-23T22:46:26.367Z,80.00
2018-06-23T22:51:29.086Z,80.54
2018-06-23T22:56:31.498Z,80.53
2018-06-23T23:01:33.960Z,81.02
2018-06-23T23:06:36.160Z,80.98
2018-06-23T23:11:38.364Z,81.00
2018-06-23T23:16:40.527Z,81.53
2018-06-23T23:21:42.720Z,81.66
2018-06-23T23:26:44.923Z,81.90
2018-06-23T23:31:47.098Z,80.80
2018-06-23T23:36:49.288Z,81.30
2018-06-23T23:41:51.490Z,82.15
2018-06-23T23:46:53.665Z,82.73
2018-06-23T23:51:55.796Z,83.04
2018-06-23T23:56:58.093Z,83.16
